Wetterdaten: Woche 13.07.09 - 19.07.09 (KW29)
Datum Zeit Temp. Innen Temp. Aussen UV X Diff Temp. Feuchte Inne Feuchte Auss Sonnenschein Luftdruck Regen ab 0,1 Wind Sonnenschein Windben
13.07.2009 00:00 21,5 C 15,7 C 0,0 UV-I 0,0 C 65 % 85 % 0 % 1011,0 hPa 0,0 l/m 0,0 km/h (0 Bft) 0,00 h 0,0 km/h (0 Bft)
13.07.2009 01:00 21,1 C 14,7 C 0,0 UV-I 0,0 C 65 % 88 % 0 % 1011,2 hPa 0,0 l/m 0,0 km/h (0 Bft) 0,00 h 0,1 km/h (0 Bft)
13.07.2009 02:00 20,9 C 14,2 C 0,0 UV-I 0,0 C 65 % 87 % 0 % 1011,5 hPa 0,0 l/m 0,0 km/h (0 Bft) 0,00 h 0,0 km/h (0 Bft)
13.07.2009 03:00 20,7 C 13,6 C 0,0 UV-I 0,0 C 64 % 88 % 0 % 1011,5 hPa 0,0 l/m 0,0 km/h (0 Bft) 0,00 h 0,1 km/h (0 Bft)
13.07.2009 04:00 20,4 C 13,2 C 0,0 UV-I 0,0 C 64 % 90 % 0 % 1011,5 hPa 0,0 l/m 0,3 km/h (0 Bft) 0,00 h 0,6 km/h (0 Bft)
13.07.2009 05:00 20,1 C 13,3 C 0,0 UV-I 0,0 C 64 % 90 % 0 % 1011,5 hPa 0,0 l/m 0,4 km/h (0 Bft) 0,00 h 0,9 km/h (0 Bft)
13.07.2009 06:00 20,0 C 13,3 C 0,2 UV-I 0,0 C 63 % 89 % 0 % 1011,9 hPa 0,0 l/m 0,6 km/h (0 Bft) 0,00 h 1,5 km/h (1 Bft)
13.07.2009 07:00 20,0 C 13,9 C 0,9 UV-I 0,1 C 63 % 88 % 2 % 1011,8 hPa 0,0 l/m 1,2 km/h (1 Bft) 0,00 h 2,0 km/h (1 Bft)
13.07.2009 08:00 20,2 C 15,4 C 1,5 UV-I 0,7 C 64 % 84 % 19 % 1012,3 hPa 0,0 l/m 2,8 km/h (1 Bft) 0,00 h 5,4 km/h (1 Bft)
13.07.2009 09:00 20,3 C 16,8 C 2,3 UV-I 1,5 C 63 % 78 % 43 % 1012,6 hPa 0,0 l/m 3,5 km/h (1 Bft) 0,10 h 4,3 km/h (1 Bft)
13.07.2009 10:00 20,6 C 18,5 C 4,5 UV-I 3,8 C 61 % 67 % 99 % 1012,9 hPa 0,0 l/m 5,1 km/h (1 Bft) 0,70 h 9,4 km/h (2 Bft)
13.07.2009 11:00 21,0 C 20,5 C 7,4 UV-I 3,9 C 58 % 61 % 99 % 1013,0 hPa 0,0 l/m 4,3 km/h (1 Bft) 0,90 h 5,9 km/h (2 Bft)
13.07.2009 12:00 21,4 C 22,7 C 7,0 UV-I 4,3 C 58 % 55 % 95 % 1013,2 hPa 0,0 l/m 4,3 km/h (1 Bft) 0,88 h 7,2 km/h (2 Bft)
13.07.2009 13:00 21,9 C 23,6 C 6,2 UV-I 2,9 C 56 % 50 % 82 % 1013,5 hPa 0,0 l/m 4,1 km/h (1 Bft) 0,47 h 5,0 km/h (1 Bft)
13.07.2009 14:00 22,5 C 24,0 C 4,7 UV-I 2,2 C 54 % 47 % 61 % 1013,3 hPa 0,0 l/m 2,6 km/h (1 Bft) 0,17 h 3,4 km/h (1 Bft)
13.07.2009 15:00 22,9 C 24,2 C 4,3 UV-I 2,2 C 54 % 48 % 64 % 1013,3 hPa 0,0 l/m 1,4 km/h (1 Bft) 0,23 h 2,8 km/h (1 Bft)
13.07.2009 16:00 23,2 C 24,7 C 5,2 UV-I 3,7 C 54 % 47 % 94 % 1012,9 hPa 0,0 l/m 1,8 km/h (1 Bft) 0,77 h 2,2 km/h (1 Bft)
13.07.2009 17:00 23,7 C 24,7 C 3,3 UV-I 2,5 C 52 % 47 % 72 % 1012,4 hPa 0,0 l/m 1,7 km/h (1 Bft) 0,33 h 2,5 km/h (1 Bft)
13.07.2009 18:00 24,0 C 24,3 C 2,3 UV-I 3,0 C 51 % 48 % 85 % 1012,0 hPa 0,0 l/m 3,0 km/h (1 Bft) 0,57 h 4,4 km/h (1 Bft)
13.07.2009 19:00 24,0 C 23,5 C 1,3 UV-I 0,3 C 52 % 51 % 7 % 1011,9 hPa 0,0 l/m 0,7 km/h (0 Bft) 0,00 h 0,9 km/h (0 Bft)
13.07.2009 20:00 23,6 C 22,9 C 0,5 UV-I 0,0 C 52 % 53 % 1 % 1011,5 hPa 0,0 l/m 0,0 km/h (0 Bft) 0,00 h 0,1 km/h (0 Bft)
13.07.2009 21:00 23,4 C 21,8 C 0,0 UV-I 0,0 C 52 % 57 % 0 % 1011,0 hPa 0,0 l/m 0,0 km/h (0 Bft) 0,00 h 0,0 km/h (0 Bft)
13.07.2009 22:00 23,1 C 20,4 C 0,0 UV-I 0,0 C 54 % 62 % 0 % 1010,9 hPa 0,0 l/m 0,0 km/h (0 Bft) 0,00 h 0,1 km/h (0 Bft)
13.07.2009 23:00 22,7 C 18,8 C 0,0 UV-I 0,0 C 56 % 69 % 0 % 1010,8 hPa 0,0 l/m 0,0 km/h (0 Bft) 0,00 h 0,0 km/h (0 Bft)
14.07.2009 00:00 22,3 C 17,4 C 0,0 UV-I 0,0 C 58 % 75 % 0 % 1010,2 hPa 0,0 l/m 0,0 km/h (0 Bft) 0,00 h 0,0 km/h (0 Bft)
14.07.2009 01:00 22,0 C 16,4 C 0,0 UV-I 0,0 C 59 % 80 % 0 % 1010,0 hPa 0,0 l/m 0,0 km/h (0 Bft) 0,00 h 0,0 km/h (0 Bft)
14.07.2009 02:00 21,7 C 15,7 C 0,0 UV-I 0,0 C 60 % 83 % 0 % 1009,8 hPa 0,0 l/m 0,0 km/h (0 Bft) 0,00 h 0,0 km/h (0 Bft)
14.07.2009 03:00 21,5 C 15,4 C 0,0 UV-I 0,0 C 61 % 86 % 0 % 1009,5 hPa 0,0 l/m 0,2 km/h (0 Bft) 0,00 h 0,7 km/h (0 Bft)
14.07.2009 04:00 21,4 C 16,2 C 0,0 UV-I 0,0 C 64 % 89 % 0 % 1009,8 hPa 0,0 l/m 0,3 km/h (0 Bft) 0,00 h 0,7 km/h (0 Bft)
14.07.2009 05:00 21,2 C 16,7 C 0,0 UV-I 0,0 C 66 % 89 % 0 % 1009,6 hPa 0,0 l/m 0,9 km/h (0 Bft) 0,00 h 2,3 km/h (1 Bft)
14.07.2009 06:00 21,3 C 17,1 C 0,2 UV-I 0,0 C 67 % 89 % 0 % 1009,9 hPa 0,0 l/m 1,3 km/h (1 Bft) 0,00 h 1,9 km/h (1 Bft)
14.07.2009 07:00 21,3 C 17,7 C 0,8 UV-I 0,2 C 67 % 87 % 7 % 1010,5 hPa 0,0 l/m 1,8 km/h (1 Bft) 0,00 h 3,7 km/h (1 Bft)
14.07.2009 08:00 21,5 C 18,6 C 1,4 UV-I 0,7 C 67 % 85 % 20 % 1011,0 hPa 0,0 l/m 1,9 km/h (1 Bft) 0,00 h 3,7 km/h (1 Bft)
14.07.2009 09:00 21,8 C 20,0 C 2,1 UV-I 1,8 C 66 % 79 % 49 % 1011,2 hPa 0,0 l/m 2,6 km/h (1 Bft) 0,10 h 4,9 km/h (1 Bft)
14.07.2009 10:00 22,1 C 21,4 C 3,8 UV-I 3,7 C 66 % 75 % 96 % 1011,4 hPa 0,0 l/m 3,1 km/h (1 Bft) 0,97 h 4,5 km/h (1 Bft)
14.07.2009 11:00 22,4 C 23,2 C 6,5 UV-I 3,7 C 65 % 69 % 90 % 1011,6 hPa 0,0 l/m 2,5 km/h (1 Bft) 0,73 h 4,6 km/h (1 Bft)
14.07.2009 12:00 22,7 C 25,6 C 6,7 UV-I 3,5 C 64 % 60 % 87 % 1011,7 hPa 0,0 l/m 4,3 km/h (1 Bft) 0,63 h 5,6 km/h (1 Bft)
14.07.2009 13:00 23,1 C 26,7 C 7,2 UV-I 3,5 C 63 % 56 % 90 % 1012,0 hPa 0,0 l/m 4,6 km/h (1 Bft) 0,77 h 7,5 km/h (2 Bft)
14.07.2009 14:00 23,9 C 27,6 C 6,0 UV-I 2,3 C 61 % 52 % 67 % 1012,2 hPa 0,0 l/m 4,3 km/h (1 Bft) 0,20 h 6,6 km/h (2 Bft)
14.07.2009 15:00 24,7 C 28,3 C 5,9 UV-I 2,8 C 58 % 48 % 77 % 1012,6 hPa 0,0 l/m 5,1 km/h (1 Bft) 0,50 h 8,2 km/h (2 Bft)
14.07.2009 16:00 25,4 C 28,0 C 4,7 UV-I 1,2 C 56 % 48 % 34 % 1012,4 hPa 0,0 l/m 4,5 km/h (1 Bft) 0,10 h 7,0 km/h (2 Bft)
14.07.2009 17:00 25,9 C 28,1 C 3,0 UV-I 2,0 C 54 % 47 % 56 % 1012,0 hPa 0,0 l/m 4,6 km/h (1 Bft) 0,30 h 6,4 km/h (2 Bft)
14.07.2009 18:00 26,0 C 27,0 C 1,9 UV-I 0,6 C 53 % 49 % 18 % 1012,4 hPa 0,0 l/m 2,8 km/h (1 Bft) 0,00 h 4,6 km/h (1 Bft)
14.07.2009 19:00 25,6 C 25,9 C 1,2 UV-I 0,2 C 53 % 53 % 6 % 1012,4 hPa 0,0 l/m 1,7 km/h (1 Bft) 0,00 h 2,2 km/h (1 Bft)
14.07.2009 20:00 25,2 C 25,0 C 0,4 UV-I 0,0 C 55 % 58 % 0 % 1012,5 hPa 0,0 l/m 0,2 km/h (0 Bft) 0,00 h 0,3 km/h (0 Bft)
14.07.2009 21:00 24,9 C 23,7 C 0,0 UV-I 0,0 C 57 % 63 % 0 % 1012,7 hPa 0,0 l/m 0,1 km/h (0 Bft) 0,00 h 0,4 km/h (0 Bft)
14.07.2009 22:00 24,5 C 22,4 C 0,0 UV-I 0,0 C 58 % 68 % 0 % 1012,7 hPa 0,0 l/m 0,0 km/h (0 Bft) 0,00 h 0,0 km/h (0 Bft)
14.07.2009 23:00 24,1 C 21,3 C 0,0 UV-I 0,0 C 60 % 71 % 0 % 1013,0 hPa 0,0 l/m 1,3 km/h (1 Bft) 0,00 h 1,8 km/h (1 Bft)
15.07.2009 00:00 23,8 C 20,2 C 0,0 UV-I 0,0 C 61 % 76 % 0 % 1013,0 hPa 0,0 l/m 1,3 km/h (1 Bft) 0,00 h 2,5 km/h (1 Bft)
15.07.2009 01:00 23,5 C 19,3 C 0,0 UV-I 0,0 C 63 % 80 % 0 % 1013,4 hPa 0,0 l/m 0,5 km/h (0 Bft) 0,00 h 0,9 km/h (0 Bft)
15.07.2009 02:00 23,3 C 18,7 C 0,0 UV-I 0,0 C 64 % 83 % 0 % 1013,7 hPa 0,0 l/m 1,0 km/h (0 Bft) 0,00 h 2,4 km/h (1 Bft)
15.07.2009 03:00 23,1 C 18,0 C 0,0 UV-I 0,0 C 65 % 85 % 0 % 1013,9 hPa 0,0 l/m 0,5 km/h (0 Bft) 0,00 h 1,3 km/h (1 Bft)
15.07.2009 04:00 22,8 C 17,7 C 0,0 UV-I 0,0 C 65 % 87 % 0 % 1014,2 hPa 0,0 l/m 0,2 km/h (0 Bft) 0,00 h 0,5 km/h (0 Bft)
15.07.2009 05:00 22,7 C 17,2 C 0,0 UV-I 0,0 C 65 % 88 % 0 % 1014,3 hPa 0,0 l/m 0,1 km/h (0 Bft) 0,00 h 0,1 km/h (0 Bft)
15.07.2009 06:00 22,5 C 16,8 C 0,2 UV-I 0,0 C 66 % 89 % 0 % 1014,6 hPa 0,0 l/m 0,5 km/h (0 Bft) 0,00 h 1,1 km/h (0 Bft)
15.07.2009 07:00 22,4 C 17,4 C 0,8 UV-I 0,6 C 66 % 89 % 16 % 1015,2 hPa 0,0 l/m 1,9 km/h (1 Bft) 0,00 h 3,0 km/h (1 Bft)
15.07.2009 08:00 22,6 C 19,0 C 1,4 UV-I 0,7 C 65 % 83 % 21 % 1015,7 hPa 0,0 l/m 3,5 km/h (1 Bft) 0,00 h 5,3 km/h (1 Bft)
15.07.2009 09:00 22,7 C 20,4 C 1,9 UV-I 1,1 C 63 % 72 % 30 % 1016,1 hPa 0,0 l/m 4,7 km/h (1 Bft) 0,10 h 7,3 km/h (2 Bft)
15.07.2009 10:00 22,8 C 22,3 C 4,2 UV-I 5,1 C 60 % 62 % 100 % 1016,2 hPa 0,0 l/m 4,8 km/h (1 Bft) 0,93 h 7,5 km/h (2 Bft)
15.07.2009 11:00 23,1 C 23,8 C 6,3 UV-I 2,8 C 59 % 58 % 72 % 1016,6 hPa 0,0 l/m 5,3 km/h (1 Bft) 0,47 h 8,6 km/h (2 Bft)
15.07.2009 12:00 23,3 C 25,0 C 7,1 UV-I 3,2 C 58 % 53 % 87 % 1016,8 hPa 0,0 l/m 6,5 km/h (2 Bft) 0,50 h 10,5 km/h (2 Bft)
15.07.2009 13:00 23,7 C 25,7 C 5,6 UV-I 2,3 C 55 % 47 % 64 % 1017,2 hPa 0,0 l/m 7,0 km/h (2 Bft) 0,20 h 10,3 km/h (2 Bft)
15.07.2009 14:00 24,2 C 26,2 C 6,2 UV-I 2,6 C 53 % 45 % 75 % 1017,7 hPa 0,0 l/m 7,2 km/h (2 Bft) 0,33 h 11,3 km/h (2 Bft)
15.07.2009 15:00 25,3 C 27,0 C 5,9 UV-I 2,5 C 50 % 41 % 70 % 1018,3 hPa 0,0 l/m 8,3 km/h (2 Bft) 0,30 h 10,4 km/h (2 Bft)
15.07.2009 16:00 26,1 C 27,3 C 6,4 UV-I 2,3 C 47 % 40 % 67 % 1018,4 hPa 0,0 l/m 6,8 km/h (2 Bft) 0,10 h 9,5 km/h (2 Bft)
15.07.2009 17:00 26,8 C 27,3 C 3,0 UV-I 2,3 C 45 % 39 % 66 % 1018,8 hPa 0,0 l/m 6,9 km/h (2 Bft) 0,17 h 10,1 km/h (2 Bft)
15.07.2009 18:00 27,0 C 26,5 C 2,4 UV-I 1,6 C 44 % 39 % 46 % 1019,2 hPa 0,0 l/m 5,0 km/h (1 Bft) 0,00 h 6,6 km/h (2 Bft)
15.07.2009 19:00 26,5 C 25,7 C 1,4 UV-I 0,2 C 44 % 40 % 7 % 1019,4 hPa 0,0 l/m 4,5 km/h (1 Bft) 0,00 h 7,7 km/h (2 Bft)
15.07.2009 20:00 25,9 C 24,4 C 0,6 UV-I 0,0 C 44 % 43 % 0 % 1019,6 hPa 0,0 l/m 1,7 km/h (1 Bft) 0,00 h 2,1 km/h (1 Bft)
15.07.2009 21:00 25,4 C 22,8 C 0,0 UV-I 0,0 C 46 % 48 % 0 % 1019,8 hPa 0,0 l/m 0,1 km/h (0 Bft) 0,00 h 0,4 km/h (0 Bft)
15.07.2009 22:00 24,8 C 20,9 C 0,0 UV-I 0,0 C 47 % 55 % 0 % 1020,4 hPa 0,0 l/m 0,0 km/h (0 Bft) 0,00 h 0,0 km/h (0 Bft)
15.07.2009 23:00 24,2 C 19,1 C 0,0 UV-I 0,0 C 49 % 63 % 0 % 1020,7 hPa 0,0 l/m 0,0 km/h (0 Bft) 0,00 h 0,1 km/h (0 Bft)
16.07.2009 00:00 23,8 C 17,9 C 0,0 UV-I 0,0 C 51 % 67 % 0 % 1020,9 hPa 0,0 l/m 0,0 km/h (0 Bft) 0,00 h 0,0 km/h (0 Bft)
16.07.2009 01:00 23,5 C 17,0 C 0,0 UV-I 0,0 C 52 % 73 % 0 % 1021,5 hPa 0,0 l/m 0,0 km/h (0 Bft) 0,00 h 0,0 km/h (0 Bft)
16.07.2009 02:00 23,2 C 16,4 C 0,0 UV-I 0,0 C 54 % 77 % 0 % 1022,0 hPa 0,0 l/m 0,0 km/h (0 Bft) 0,00 h 0,0 km/h (0 Bft)
16.07.2009 03:00 22,9 C 15,8 C 0,0 UV-I 0,0 C 55 % 80 % 0 % 1022,2 hPa 0,0 l/m 0,0 km/h (0 Bft) 0,00 h 0,0 km/h (0 Bft)
16.07.2009 04:00 22,8 C 15,6 C 0,0 UV-I 0,0 C 56 % 83 % 0 % 1022,4 hPa 0,0 l/m 0,0 km/h (0 Bft) 0,00 h 0,0 km/h (0 Bft)
16.07.2009 05:00 22,7 C 16,0 C 0,0 UV-I 0,1 C 57 % 83 % 0 % 1022,5 hPa 0,0 l/m 0,0 km/h (0 Bft) 0,00 h 0,0 km/h (0 Bft)
16.07.2009 06:00 22,6 C 16,1 C 0,1 UV-I 0,2 C 57 % 81 % 4 % 1022,7 hPa 0,0 l/m 0,1 km/h (0 Bft) 0,00 h 0,5 km/h (0 Bft)
16.07.2009 07:00 22,6 C 16,7 C 0,7 UV-I 0,4 C 56 % 78 % 12 % 1022,7 hPa 0,0 l/m 0,0 km/h (0 Bft) 0,00 h 0,0 km/h (0 Bft)
16.07.2009 08:00 22,6 C 17,6 C 1,5 UV-I 0,7 C 56 % 74 % 21 % 1022,9 hPa 0,0 l/m 0,5 km/h (0 Bft) 0,00 h 1,3 km/h (1 Bft)
16.07.2009 09:00 22,8 C 19,1 C 2,2 UV-I 1,6 C 55 % 67 % 43 % 1023,1 hPa 0,0 l/m 1,8 km/h (1 Bft) 0,13 h 2,8 km/h (1 Bft)
16.07.2009 10:00 23,1 C 21,1 C 6,9 UV-I 5,7 C 55 % 58 % 100 % 1023,1 hPa 0,0 l/m 0,8 km/h (0 Bft) 0,88 h 1,5 km/h (1 Bft)
16.07.2009 11:00 23,4 C 23,6 C 9,4 UV-I 5,3 C 55 % 51 % 100 % 1023,1 hPa 0,0 l/m 1,2 km/h (1 Bft) 1,00 h 2,0 km/h (1 Bft)
16.07.2009 12:00 23,7 C 25,6 C 7,8 UV-I 5,3 C 54 % 47 % 100 % 1023,0 hPa 0,0 l/m 2,3 km/h (1 Bft) 1,00 h 3,3 km/h (1 Bft)
16.07.2009 13:00 24,1 C 27,6 C 7,0 UV-I 4,4 C 53 % 43 % 99 % 1022,7 hPa 0,0 l/m 2,5 km/h (1 Bft) 0,93 h 4,2 km/h (1 Bft)
16.07.2009 14:00 24,8 C 28,9 C 6,7 UV-I 3,4 C 52 % 39 % 89 % 1022,3 hPa 0,0 l/m 2,8 km/h (1 Bft) 0,77 h 4,7 km/h (1 Bft)
16.07.2009 15:00 25,5 C 29,3 C 6,0 UV-I 3,9 C 50 % 38 % 98 % 1022,0 hPa 0,0 l/m 2,2 km/h (1 Bft) 0,90 h 3,5 km/h (1 Bft)
16.07.2009 16:00 26,3 C 30,0 C 5,5 UV-I 3,0 C 48 % 36 % 79 % 1021,4 hPa 0,0 l/m 2,6 km/h (1 Bft) 0,53 h 4,8 km/h (1 Bft)
16.07.2009 17:00 26,8 C 29,8 C 3,7 UV-I 3,1 C 47 % 36 % 83 % 1020,7 hPa 0,0 l/m 1,6 km/h (1 Bft) 0,43 h 2,8 km/h (1 Bft)
16.07.2009 18:00 27,2 C 29,2 C 2,5 UV-I 2,5 C 46 % 38 % 70 % 1020,0 hPa 0,0 l/m 1,2 km/h (1 Bft) 0,33 h 2,4 km/h (1 Bft)
16.07.2009 19:00 26,7 C 27,6 C 1,5 UV-I 0,2 C 47 % 41 % 6 % 1019,5 hPa 0,0 l/m 0,7 km/h (0 Bft) 0,00 h 1,5 km/h (1 Bft)
16.07.2009 20:00 26,2 C 26,3 C 0,6 UV-I 0,0 C 48 % 46 % 0 % 1018,8 hPa 0,0 l/m 0,0 km/h (0 Bft) 0,00 h 0,2 km/h (0 Bft)
16.07.2009 21:00 25,8 C 24,8 C 0,0 UV-I 0,0 C 50 % 52 % 0 % 1017,8 hPa 0,0 l/m 0,0 km/h (0 Bft) 0,00 h 0,0 km/h (0 Bft)
16.07.2009 22:00 25,4 C 23,1 C 0,0 UV-I 0,0 C 51 % 56 % 0 % 1016,5 hPa 0,0 l/m 0,0 km/h (0 Bft) 0,00 h 0,0 km/h (0 Bft)
16.07.2009 23:00 24,9 C 21,6 C 0,0 UV-I 0,0 C 52 % 60 % 0 % 1015,6 hPa 0,0 l/m 0,0 km/h (0 Bft) 0,00 h 0,0 km/h (0 Bft)
17.07.2009 00:00 24,6 C 20,5 C 0,0 UV-I 0,0 C 53 % 64 % 0 % 1014,6 hPa 0,0 l/m 0,0 km/h (0 Bft) 0,00 h 0,0 km/h (0 Bft)
17.07.2009 01:00 24,4 C 20,1 C 0,0 UV-I 0,0 C 54 % 65 % 0 % 1013,5 hPa 0,0 l/m 0,2 km/h (0 Bft) 0,00 h 0,9 km/h (0 Bft)
17.07.2009 02:00 24,2 C 19,8 C 0,0 UV-I 0,0 C 54 % 67 % 0 % 1012,5 hPa 0,0 l/m 0,7 km/h (0 Bft) 0,00 h 1,3 km/h (1 Bft)
17.07.2009 03:00 24,1 C 19,6 C 0,0 UV-I 0,0 C 55 % 69 % 0 % 1012,1 hPa 0,0 l/m 0,6 km/h (0 Bft) 0,00 h 2,1 km/h (1 Bft)
17.07.2009 04:00 24,0 C 20,0 C 0,0 UV-I 0,0 C 55 % 69 % 0 % 1010,9 hPa 0,0 l/m 1,0 km/h (0 Bft) 0,00 h 1,9 km/h (1 Bft)
17.07.2009 05:00 23,9 C 20,0 C 0,0 UV-I 0,0 C 55 % 69 % 0 % 1009,8 hPa 0,0 l/m 0,7 km/h (0 Bft) 0,00 h 1,6 km/h (1 Bft)
17.07.2009 06:00 23,9 C 20,0 C 0,0 UV-I 0,0 C 55 % 69 % 0 % 1009,3 hPa 0,0 l/m 0,7 km/h (0 Bft) 0,00 h 1,6 km/h (1 Bft)
17.07.2009 07:00 23,8 C 19,9 C 0,1 UV-I 0,0 C 57 % 73 % 0 % 1009,5 hPa 0,0 l/m 4,7 km/h (1 Bft) 0,00 h 8,7 km/h (2 Bft)
17.07.2009 08:00 23,6 C 19,7 C 0,1 UV-I 0,0 C 60 % 79 % 0 % 1010,0 hPa 1,1 l/m 1,3 km/h (1 Bft) 0,00 h 1,6 km/h (1 Bft)
17.07.2009 09:00 23,7 C 19,3 C 0,8 UV-I 0,0 C 62 % 86 % 0 % 1009,4 hPa 0,7 l/m 0,6 km/h (0 Bft) 0,00 h 1,5 km/h (1 Bft)
17.07.2009 10:00 23,9 C 20,4 C 6,1 UV-I 1,6 C 62 % 84 % 47 % 1009,7 hPa 0,0 l/m 4,7 km/h (1 Bft) 0,13 h 8,3 km/h (2 Bft)
17.07.2009 11:00 23,9 C 21,7 C 5,3 UV-I 1,8 C 59 % 68 % 52 % 1009,6 hPa 0,0 l/m 7,3 km/h (2 Bft) 0,17 h 11,5 km/h (2 Bft)
17.07.2009 12:00 24,0 C 23,1 C 5,9 UV-I 2,5 C 57 % 61 % 71 % 1009,5 hPa 0,0 l/m 6,9 km/h (2 Bft) 0,30 h 9,8 km/h (2 Bft)
17.07.2009 13:00 24,3 C 24,3 C 5,9 UV-I 2,3 C 54 % 52 % 66 % 1009,3 hPa 0,0 l/m 8,2 km/h (2 Bft) 0,27 h 11,6 km/h (2 Bft)
17.07.2009 14:00 24,6 C 23,9 C 5,0 UV-I 1,1 C 50 % 47 % 32 % 1009,7 hPa 0,0 l/m 8,5 km/h (2 Bft) 0,00 h 11,2 km/h (2 Bft)
17.07.2009 15:00 24,9 C 23,8 C 5,7 UV-I 2,2 C 48 % 48 % 61 % 1009,9 hPa 0,0 l/m 6,0 km/h (2 Bft) 0,33 h 8,0 km/h (2 Bft)
17.07.2009 16:00 25,8 C 24,9 C 5,7 UV-I 2,2 C 46 % 44 % 61 % 1009,9 hPa 0,0 l/m 6,4 km/h (2 Bft) 0,20 h 9,6 km/h (2 Bft)
17.07.2009 17:00 26,3 C 24,4 C 2,2 UV-I 0,8 C 45 % 46 % 24 % 1009,4 hPa 0,0 l/m 4,7 km/h (1 Bft) 0,00 h 6,8 km/h (2 Bft)
17.07.2009 18:00 25,9 C 23,1 C 1,6 UV-I 0,1 C 45 % 50 % 2 % 1009,2 hPa 0,0 l/m 4,4 km/h (1 Bft) 0,00 h 6,9 km/h (2 Bft)
17.07.2009 19:00 25,4 C 22,4 C 1,2 UV-I 0,0 C 46 % 52 % 0 % 1008,8 hPa 0,0 l/m 3,6 km/h (1 Bft) 0,00 h 5,2 km/h (1 Bft)
17.07.2009 20:00 25,0 C 21,8 C 0,6 UV-I 0,0 C 45 % 50 % 0 % 1008,4 hPa 0,0 l/m 2,8 km/h (1 Bft) 0,00 h 4,3 km/h (1 Bft)
17.07.2009 21:00 24,6 C 21,0 C 0,0 UV-I 0,0 C 45 % 52 % 0 % 1008,5 hPa 0,0 l/m 1,4 km/h (1 Bft) 0,00 h 1,6 km/h (1 Bft)
17.07.2009 22:00 24,1 C 19,7 C 0,0 UV-I 0,0 C 46 % 56 % 0 % 1008,6 hPa 0,0 l/m 0,6 km/h (0 Bft) 0,00 h 1,1 km/h (1 Bft)
17.07.2009 23:00 23,6 C 18,9 C 0,0 UV-I 0,0 C 47 % 58 % 0 % 1008,8 hPa 0,0 l/m 3,8 km/h (1 Bft) 0,00 h 5,9 km/h (2 Bft)
18.07.2009 00:00 23,2 C 18,2 C 0,0 UV-I 0,0 C 47 % 59 % 0 % 1008,8 hPa 0,0 l/m 3,8 km/h (1 Bft) 0,00 h 6,6 km/h (2 Bft)
18.07.2009 01:00 22,8 C 17,3 C 0,0 UV-I 0,0 C 48 % 63 % 0 % 1008,4 hPa 0,0 l/m 3,7 km/h (1 Bft) 0,00 h 6,0 km/h (2 Bft)
18.07.2009 02:00 22,4 C 16,5 C 0,0 UV-I 0,0 C 49 % 68 % 0 % 1008,4 hPa 0,0 l/m 4,2 km/h (1 Bft) 0,00 h 6,4 km/h (2 Bft)
18.07.2009 03:00 22,0 C 15,8 C 0,0 UV-I 0,0 C 51 % 72 % 0 % 1007,9 hPa 0,0 l/m 2,8 km/h (1 Bft) 0,00 h 5,0 km/h (1 Bft)
18.07.2009 04:00 21,7 C 15,2 C 0,0 UV-I 0,0 C 52 % 75 % 0 % 1008,1 hPa 0,0 l/m 3,2 km/h (1 Bft) 0,00 h 4,3 km/h (1 Bft)
18.07.2009 05:00 21,5 C 14,8 C 0,0 UV-I 0,0 C 54 % 79 % 0 % 1008,0 hPa 0,0 l/m 3,0 km/h (1 Bft) 0,00 h 5,1 km/h (1 Bft)
18.07.2009 06:00 21,2 C 15,0 C 0,0 UV-I 0,0 C 55 % 80 % 0 % 1008,0 hPa 0,0 l/m 2,3 km/h (1 Bft) 0,00 h 4,0 km/h (1 Bft)
18.07.2009 07:00 21,3 C 15,0 C 0,2 UV-I 0,0 C 58 % 84 % 0 % 1008,2 hPa 0,7 l/m 1,7 km/h (1 Bft) 0,00 h 2,7 km/h (1 Bft)
18.07.2009 08:00 21,4 C 15,1 C 1,1 UV-I 0,0 C 59 % 87 % 0 % 1008,2 hPa 0,0 l/m 2,5 km/h (1 Bft) 0,00 h 4,4 km/h (1 Bft)
18.07.2009 09:00 21,6 C 15,8 C 1,1 UV-I 0,0 C 58 % 83 % 0 % 1008,4 hPa 0,0 l/m 4,2 km/h (1 Bft) 0,00 h 6,7 km/h (2 Bft)
18.07.2009 10:00 21,7 C 16,9 C 2,3 UV-I 0,7 C 57 % 76 % 20 % 1008,6 hPa 0,0 l/m 5,5 km/h (1 Bft) 0,00 h 10,1 km/h (2 Bft)
18.07.2009 11:00 21,8 C 17,3 C 1,6 UV-I 0,2 C 55 % 72 % 6 % 1009,0 hPa 0,0 l/m 7,0 km/h (2 Bft) 0,00 h 11,4 km/h (2 Bft)
18.07.2009 12:00 21,9 C 18,6 C 5,2 UV-I 2,3 C 55 % 67 % 65 % 1008,9 hPa 0,0 l/m 8,2 km/h (2 Bft) 0,30 h 13,7 km/h (3 Bft)
18.07.2009 13:00 22,3 C 19,4 C 3,1 UV-I 0,9 C 53 % 62 % 26 % 1009,6 hPa 0,0 l/m 7,3 km/h (2 Bft) 0,00 h 12,6 km/h (3 Bft)
18.07.2009 14:00 22,4 C 18,9 C 0,9 UV-I 0,0 C 52 % 63 % 0 % 1010,5 hPa 0,0 l/m 4,5 km/h (1 Bft) 0,00 h 7,2 km/h (2 Bft)
18.07.2009 15:00 22,3 C 18,6 C 1,3 UV-I 0,2 C 53 % 64 % 7 % 1010,7 hPa 0,0 l/m 3,0 km/h (1 Bft) 0,00 h 7,1 km/h (2 Bft)
18.07.2009 16:00 22,3 C 19,1 C 2,6 UV-I 1,2 C 52 % 63 % 35 % 1010,9 hPa 0,0 l/m 3,5 km/h (1 Bft) 0,00 h 4,7 km/h (1 Bft)
18.07.2009 17:00 22,7 C 19,7 C 0,9 UV-I 0,3 C 52 % 63 % 7 % 1011,3 hPa 0,0 l/m 2,3 km/h (1 Bft) 0,00 h 3,8 km/h (1 Bft)
18.07.2009 18:00 22,8 C 19,5 C 1,4 UV-I 0,4 C 52 % 64 % 12 % 1011,4 hPa 0,0 l/m 2,6 km/h (1 Bft) 0,00 h 4,1 km/h (1 Bft)
18.07.2009 19:00 22,8 C 19,6 C 0,7 UV-I 0,0 C 52 % 60 % 0 % 1011,3 hPa 0,0 l/m 2,0 km/h (1 Bft) 0,00 h 3,2 km/h (1 Bft)
18.07.2009 20:00 22,7 C 19,6 C 0,6 UV-I 0,0 C 49 % 51 % 0 % 1011,8 hPa 0,0 l/m 3,1 km/h (1 Bft) 0,00 h 4,6 km/h (1 Bft)
18.07.2009 21:00 22,4 C 18,5 C 0,0 UV-I 0,0 C 48 % 54 % 0 % 1011,9 hPa 0,0 l/m 1,2 km/h (1 Bft) 0,00 h 2,1 km/h (1 Bft)
18.07.2009 22:00 22,1 C 17,2 C 0,0 UV-I 0,0 C 48 % 59 % 0 % 1012,5 hPa 0,0 l/m 0,6 km/h (0 Bft) 0,00 h 1,1 km/h (1 Bft)
18.07.2009 23:00 21,7 C 16,2 C 0,0 UV-I 0,0 C 48 % 62 % 0 % 1012,6 hPa 0,0 l/m 0,8 km/h (0 Bft) 0,00 h 1,0 km/h (0 Bft)
19.07.2009 00:00 21,4 C 15,4 C 0,0 UV-I 0,0 C 49 % 65 % 0 % 1012,7 hPa 0,0 l/m 0,3 km/h (0 Bft) 0,00 h 0,4 km/h (0 Bft)
19.07.2009 01:00 21,2 C 15,0 C 0,0 UV-I 0,0 C 50 % 68 % 0 % 1012,5 hPa 0,0 l/m 0,2 km/h (0 Bft) 0,00 h 0,5 km/h (0 Bft)
19.07.2009 02:00 21,1 C 15,4 C 0,0 UV-I 0,0 C 50 % 68 % 0 % 1012,5 hPa 0,0 l/m 0,8 km/h (0 Bft) 0,00 h 2,0 km/h (1 Bft)
19.07.2009 03:00 21,1 C 15,5 C 0,0 UV-I 0,0 C 51 % 70 % 0 % 1012,1 hPa 0,0 l/m 0,5 km/h (0 Bft) 0,00 h 1,3 km/h (1 Bft)
19.07.2009 04:00 21,1 C 15,5 C 0,0 UV-I 0,0 C 52 % 72 % 0 % 1011,8 hPa 0,0 l/m 1,7 km/h (1 Bft) 0,00 h 3,6 km/h (1 Bft)
19.07.2009 05:00 20,9 C 15,4 C 0,0 UV-I 0,0 C 55 % 79 % 0 % 1011,8 hPa 0,0 l/m 2,3 km/h (1 Bft) 0,00 h 3,1 km/h (1 Bft)
19.07.2009 06:00 20,8 C 15,4 C 0,0 UV-I 0,0 C 57 % 81 % 0 % 1011,4 hPa 0,0 l/m 1,5 km/h (1 Bft) 0,00 h 2,8 km/h (1 Bft)
19.07.2009 07:00 20,8 C 15,8 C 0,4 UV-I 0,1 C 58 % 81 % 2 % 1011,3 hPa 0,0 l/m 2,5 km/h (1 Bft) 0,00 h 3,9 km/h (1 Bft)
19.07.2009 08:00 21,0 C 16,5 C 0,6 UV-I 0,2 C 58 % 80 % 6 % 1011,1 hPa 0,0 l/m 3,4 km/h (1 Bft) 0,00 h 5,0 km/h (1 Bft)
19.07.2009 09:00 21,1 C 16,4 C 0,7 UV-I 0,0 C 60 % 83 % 0 % 1011,3 hPa 0,9 l/m 1,4 km/h (1 Bft) 0,00 h 2,1 km/h (1 Bft)
19.07.2009 10:00 21,4 C 16,6 C 2,2 UV-I 0,4 C 60 % 86 % 10 % 1011,9 hPa 0,8 l/m 2,1 km/h (1 Bft) 0,00 h 4,4 km/h (1 Bft)
19.07.2009 11:00 21,7 C 17,7 C 5,6 UV-I 2,2 C 60 % 82 % 62 % 1012,6 hPa 0,0 l/m 5,7 km/h (1 Bft) 0,27 h 11,1 km/h (2 Bft)
19.07.2009 12:00 21,8 C 19,1 C 5,6 UV-I 2,6 C 59 % 72 % 72 % 1013,5 hPa 0,0 l/m 6,8 km/h (2 Bft) 0,43 h 10,6 km/h (2 Bft)
19.07.2009 13:00 22,0 C 20,4 C 5,0 UV-I 2,5 C 57 % 62 % 72 % 1013,5 hPa 0,0 l/m 6,8 km/h (2 Bft) 0,12 h 10,5 km/h (2 Bft)
19.07.2009 14:00 22,5 C 21,6 C 5,4 UV-I 2,3 C 53 % 56 % 65 % 1013,7 hPa 0,0 l/m 7,4 km/h (2 Bft) 0,13 h 11,5 km/h (2 Bft)
19.07.2009 15:00 23,0 C 21,5 C 4,4 UV-I 1,5 C 52 % 56 % 42 % 1014,3 hPa 0,0 l/m 8,4 km/h (2 Bft) 0,00 h 12,0 km/h (2 Bft)
19.07.2009 16:00 23,3 C 20,5 C 6,2 UV-I 2,4 C 53 % 62 % 61 % 1014,8 hPa 0,0 l/m 5,5 km/h (1 Bft) 0,23 h 8,0 km/h (2 Bft)
19.07.2009 17:00 24,1 C 21,7 C 2,9 UV-I 1,5 C 50 % 55 % 44 % 1014,6 hPa 0,0 l/m 6,8 km/h (2 Bft) 0,03 h 9,0 km/h (2 Bft)
19.07.2009 18:00 24,1 C 20,7 C 1,5 UV-I 0,9 C 49 % 58 % 25 % 1015,1 hPa 0,0 l/m 2,9 km/h (1 Bft) 0,00 h 4,7 km/h (1 Bft)
19.07.2009 19:00 23,6 C 20,7 C 1,2 UV-I 0,3 C 49 % 55 % 10 % 1015,0 hPa 0,0 l/m 3,8 km/h (1 Bft) 0,00 h 6,7 km/h (2 Bft)
19.07.2009 20:00 23,2 C 19,5 C 0,3 UV-I 0,0 C 49 % 60 % 0 % 1015,4 hPa 0,1 l/m 4,1 km/h (1 Bft) 0,00 h 6,7 km/h (2 Bft)
19.07.2009 21:00 22,5 C 17,5 C 0,1 UV-I 0,0 C 52 % 68 % 0 % 1015,4 hPa 0,0 l/m 2,0 km/h (1 Bft) 0,00 h 3,1 km/h (1 Bft)
19.07.2009 22:00 22,0 C 16,8 C 0,0 UV-I 0,0 C 54 % 72 % 0 % 1015,7 hPa 0,0 l/m 1,5 km/h (1 Bft) 0,00 h 1,9 km/h (1 Bft)
19.07.2009 23:00 21,8 C 16,8 C 0,0 UV-I 0,0 C 55 % 74 % 0 % 1015,5 hPa 0,0 l/m 0,9 km/h (0 Bft) 0,00 h 3,5 km/h (1 Bft)
Min-Datum _ 13.07.09 13.07.09 13.07.09 13.07.09 15.07.09 16.07.09 13.07.09 18.07.09 - 13.07.09 - 13.07.09
_ Min-Zeit 05:54 04:08 00:00 00:00 17:32 16:08 00:00 03:38 - 00:00 - 00:00
Minimum _ 20,0 C 13,2 C 0,0 UV-I 0,0 C 44 % 35 % 0 % 1007,6 hPa - 0,0 km/h (0 Bft) - 0,0 km/h (0 Bft)
Max-Datum _ 16.07.09 16.07.09 17.07.09 16.07.09 14.07.09 13.07.09 13.07.09 16.07.09 17.07.09 17.07.09 13.07.09 15.07.09
_ Max-Zeit 18:08 16:20 11:18 11:08 06:06 04:16 09:56 09:58 08:30 14:12 09:54 13:44
Maximum _ 27,2 C 30,3 C 11,7 UV-I 6,7 C 67 % 90 % 100 % 1023,2 hPa 1,1 l/m 10,8 km/h
N-NO (2 Bft)
0,03 h 30,3 km/h
O-NO (5 Bft)
Durchschnitt _ 23,1 C 20,3 C 2,0 UV-I 1,0 C 55 % 65 % 25 % 1013,5 hPa #4,1 l/m 2,5 km/h (1 Bft) #22:21 h 4,1 km/h (1 Bft)
© 2012 W. Hausmann